Time;durP1;ratioP1;P1;durP2;ratioP2;P2;SDS_P1;SDS_P2;PMS_P1;PMS_P2;Temp;Humidity;BMP_temperature;BMP_pressure;BME280_temperature;BME280_humidity;BME280_pressure;Samples;Min_cycle;Max_cycle;Signal;HPM_P1;HPM_P2
2023/12/11 00:00:07;;;;;;;0.40;0.30;;;9.80;99.90;;;;;;4964060;28;20450;-87
2023/12/11 00:02:33;;;;;;;0.30;0.30;;;9.80;99.90;;;;;;4966935;28;20799;-87
2023/12/11 00:04:59;;;;;;;0.40;0.20;;;;;;;;;;4972026;28;20231;-87
2023/12/11 00:07:25;;;;;;;0.40;0.20;;;;;;;;;;4963787;28;20543;-87
2023/12/11 00:09:59;;;;;;;0.40;0.40;;;9.90;99.90;;;;;;4976388;28;20429;-88
2023/12/11 00:12:26;;;;;;;0.30;0.20;;;10.00;99.90;;;;;;4992983;28;20414;-87
2023/12/11 00:14:52;;;;;;;3.25;0.45;;;;;;;;;;4987052;28;20195;-89
2023/12/11 00:17:19;;;;;;;0.73;0.40;;;10.00;99.90;;;;;;4999904;28;20244;-88
2023/12/11 00:19:45;;;;;;;0.47;0.40;;;9.90;99.90;;;;;;4971624;28;20439;-87
2023/12/11 00:22:13;;;;;;;0.30;0.20;;;10.00;99.90;;;;;;4985669;28;20262;-88
2023/12/11 00:24:40;;;;;;;0.40;0.30;;;9.90;99.90;;;;;;4984867;28;20195;-88
2023/12/11 00:27:11;;;;;;;0.50;0.40;;;;;;;;;;4984951;28;20187;-88
2023/12/11 00:29:38;;;;;;;0.30;0.30;;;9.90;99.90;;;;;;5000876;28;20199;-88
2023/12/11 00:32:04;;;;;;;0.40;0.38;;;;;;;;;;5001794;28;20160;-88
2023/12/11 00:34:31;;;;;;;0.57;0.40;;;9.90;99.90;;;;;;5002735;28;20237;-88
2023/12/11 00:36:57;;;;;;;0.50;0.43;;;;;;;;;;5002207;28;20685;-88
2023/12/11 00:39:23;;;;;;;0.43;0.43;;;;;;;;;;5000612;28;20242;-88
2023/12/11 00:41:51;;;;;;;0.80;0.60;;;10.10;99.90;;;;;;5000365;28;20175;-88
2023/12/11 00:44:19;;;;;;;0.43;0.30;;;10.00;99.90;;;;;;4999836;28;20446;-88
2023/12/11 00:46:46;;;;;;;0.40;0.30;;;;;;;;;;5001592;28;20187;-87
2023/12/11 00:49:12;;;;;;;0.50;0.40;;;;;;;;;;4994279;28;20448;-89
2023/12/11 00:51:48;;;;;;;1.13;0.55;;;10.10;99.90;;;;;;4982836;28;20178;-88
2023/12/11 00:54:14;;;;;;;0.40;0.30;;;;;;;;;;5000856;28;20265;-87
2023/12/11 00:56:42;;;;;;;0.40;0.30;;;10.10;99.90;;;;;;4999039;28;20199;-87
2023/12/11 00:59:08;;;;;;;0.40;0.32;;;10.00;99.90;;;;;;4983624;28;20422;-88
2023/12/11 01:01:34;;;;;;;0.70;0.50;;;9.90;99.90;;;;;;5001369;28;20537;-87
2023/12/11 01:04:00;;;;;;;0.40;0.30;;;;;;;;;;4983156;28;20217;-87
2023/12/11 01:06:26;;;;;;;0.33;0.27;;;;;;;;;;4987303;28;20198;-87
2023/12/11 01:08:52;;;;;;;0.30;0.27;;;;;;;;;;4980167;28;20498;-87
2023/12/11 01:11:18;;;;;;;0.30;0.20;;;;;;;;;;4979093;28;20435;-87
2023/12/11 01:13:44;;;;;;;0.50;0.50;;;;;;;;;;4980193;28;20960;-86
2023/12/11 01:16:09;;;;;;;0.40;0.30;;;9.80;99.90;;;;;;4980833;28;20568;-87
2023/12/11 01:18:35;;;;;;;0.63;0.40;;;;;;;;;;4964923;28;20600;-87
2023/12/11 01:21:02;;;;;;;0.30;0.20;;;10.00;99.90;;;;;;4979792;28;20195;-88
2023/12/11 01:23:28;;;;;;;2.35;0.30;;;;;;;;;;4982126;28;20497;-87
2023/12/11 01:25:54;;;;;;;1.43;0.50;;;;;;;;;;4981404;28;20184;-87
2023/12/11 01:28:21;;;;;;;0.40;0.30;;;9.80;99.90;;;;;;4980981;28;20424;-87
2023/12/11 01:30:47;;;;;;;0.68;0.60;;;;;;;;;;4979633;28;20436;-86
2023/12/11 01:33:13;;;;;;;0.40;0.30;;;;;;;;;;4979707;28;20266;-86
2023/12/11 01:35:39;;;;;;;0.30;0.20;;;9.70;99.90;;;;;;4980889;28;20408;-86
2023/12/11 01:38:05;;;;;;;0.40;0.40;;;;;;;;;;4986551;28;20419;-88
2023/12/11 01:40:31;;;;;;;0.30;0.20;;;;;;;;;;4989977;28;20218;-87
2023/12/11 01:43:11;;;;;;;0.30;0.20;;;9.80;99.90;;;;;;4988358;28;20442;-86
2023/12/11 01:45:37;;;;;;;0.60;0.60;;;9.80;99.90;;;;;;4973784;28;20418;-87
2023/12/11 01:48:03;;;;;;;0.30;0.20;;;;;;;;;;4980087;28;20183;-86
2023/12/11 01:50:29;;;;;;;0.30;0.30;;;;;;;;;;4993351;28;20211;-86
2023/12/11 01:52:55;;;;;;;0.40;0.30;;;9.60;99.90;;;;;;5002565;28;20183;-86
2023/12/11 01:55:20;;;;;;;0.40;0.30;;;;;;;;;;4976750;28;20551;-85
2023/12/11 01:57:47;;;;;;;0.60;0.30;;;;;;;;;;4994487;28;20168;-86
2023/12/11 02:00:12;;;;;;;9.55;1.65;;;9.70;99.90;;;;;;4994798;28;20460;-87
2023/12/11 02:02:38;;;;;;;0.40;0.30;;;;;;;;;;4996710;28;20176;-86
2023/12/11 02:05:04;;;;;;;0.50;0.30;;;;;;;;;;4979550;28;20199;-87
2023/12/11 02:07:31;;;;;;;0.38;0.30;;;9.70;99.90;;;;;;4992334;28;20617;-87
2023/12/11 02:09:57;;;;;;;0.60;0.45;;;;;;;;;;4978252;28;20274;-87
2023/12/11 02:12:23;;;;;;;0.50;0.40;;;;;;;;;;4993914;28;20183;-89
2023/12/11 02:14:49;;;;;;;0.60;0.40;;;;;;;;;;4981525;28;20410;-89
2023/12/11 02:17:15;;;;;;;0.57;0.37;;;;;;;;;;4982321;28;20417;-88
2023/12/11 02:19:41;;;;;;;0.40;0.30;;;;;;;;;;4982016;28;20430;-89
2023/12/11 02:22:07;;;;;;;0.50;0.40;;;;;;;;;;4983665;28;20426;-89
2023/12/11 02:24:41;;;;;;;0.88;0.40;;;9.50;99.90;;;;;;4981673;28;20465;-89
2023/12/11 02:27:07;;;;;;;0.60;0.52;;;;;;;;;;4982935;28;20202;-88
2023/12/11 02:29:33;;;;;;;2.93;0.37;;;;;;;;;;5045794;28;20195;-88
2023/12/11 02:32:06;;;;;;;1.10;0.53;;;9.50;99.90;;;;;;5016853;28;20972;-88
2023/12/11 02:34:33;;;;;;;0.40;0.30;;;;;;;;;;4980283;28;20449;-88
2023/12/11 02:36:59;;;;;;;0.57;0.40;;;;;;;;;;4981476;28;20176;-89
2023/12/11 02:39:24;;;;;;;0.40;0.30;;;;;;;;;;4999064;28;20174;-89
2023/12/11 02:41:50;;;;;;;0.60;0.30;;;;;;;;;;4983221;28;20414;-90
2023/12/11 02:44:16;;;;;;;0.33;0.30;;;;;;;;;;4982890;28;20466;-86
2023/12/11 02:46:42;;;;;;;0.50;0.40;;;;;;;;;;4994289;28;20426;-89
2023/12/11 02:49:08;;;;;;;0.43;0.37;;;;;;;;;;4986990;28;20518;-88
2023/12/11 02:51:34;;;;;;;1.60;0.53;;;;;;;;;;4984787;28;20467;-88
2023/12/11 02:54:00;;;;;;;0.73;0.70;;;;;;;;;;4989686;28;20786;-87
2023/12/11 02:56:26;;;;;;;12.90;0.87;;;;;;;;;;4984892;28;20430;-87
2023/12/11 02:58:52;;;;;;;1.00;0.90;;;;;;;;;;4970975;28;20417;-86
2023/12/11 03:01:18;;;;;;;0.40;0.30;;;;;;;;;;4990406;28;20465;-87
2023/12/11 03:03:44;;;;;;;0.40;0.30;;;;;;;;;;4989855;28;20482;-87
2023/12/11 03:06:18;;;;;;;1.00;0.87;;;10.10;99.90;;;;;;4994442;28;21098;-89
2023/12/11 03:08:44;;;;;;;0.90;0.50;;;;;;;;;;4989359;28;20430;-88
2023/12/11 03:11:10;;;;;;;0.73;0.73;;;;;;;;;;4989325;28;20258;-90
2023/12/11 03:13:36;;;;;;;0.77;0.65;;;;;;;;;;4987215;28;20442;-88
2023/12/11 03:16:02;;;;;;;1.40;0.97;;;;;;;;;;4988577;28;20176;-90
2023/12/11 03:18:28;;;;;;;4.72;1.33;;;;;;;;;;5000760;28;20437;-85
2023/12/11 03:20:54;;;;;;;0.83;0.83;;;;;;;;;;4988061;28;20278;-89
2023/12/11 03:23:20;;;;;;;0.40;0.40;;;;;;;;;;4989045;28;20508;-89
2023/12/11 03:25:46;;;;;;;0.83;0.83;;;;;;;;;;4994603;28;20415;-89
2023/12/11 03:28:12;;;;;;;0.50;0.50;;;;;;;;;;4995427;28;20962;-89
2023/12/11 03:30:38;;;;;;;0.40;0.30;;;;;;;;;;4989990;28;20445;-89
2023/12/11 03:33:04;;;;;;;0.50;0.50;;;;;;;;;;4986199;28;20438;-88
2023/12/11 03:35:30;;;;;;;0.50;0.40;;;;;;;;;;4994186;28;20494;-88
2023/12/11 03:37:56;;;;;;;1.07;0.33;;;;;;;;;;4993376;28;20434;-86
2023/12/11 03:40:22;;;;;;;0.40;0.30;;;;;;;;;;4986802;28;20576;-86
2023/12/11 03:42:47;;;;;;;1.90;0.40;;;;;;;;;;4990187;28;20444;-87
2023/12/11 03:45:13;;;;;;;0.40;0.40;;;;;;;;;;4990599;28;20486;-88
2023/12/11 03:47:40;;;;;;;0.50;0.40;;;;;;;;;;5001532;28;20441;-88
2023/12/11 03:50:06;;;;;;;2.47;0.50;;;;;;;;;;4989764;28;20453;-89
2023/12/11 03:52:32;;;;;;;0.40;0.30;;;;;;;;;;5016774;28;20247;-86
2023/12/11 03:54:58;;;;;;;0.60;0.40;;;;;;;;;;4992966;28;20229;-87
2023/12/11 03:57:24;;;;;;;1.03;0.40;;;;;;;;;;4998026;28;20427;-87
2023/12/11 03:59:50;;;;;;;0.30;0.20;;;;;;;;;;4994999;28;20464;-87
2023/12/11 04:02:16;;;;;;;0.53;0.30;;;;;;;;;;4978412;28;20476;-87
2023/12/11 04:04:42;;;;;;;0.40;0.30;;;;;;;;;;4990780;28;20502;-88
2023/12/11 04:07:08;;;;;;;0.40;0.40;;;;;;;;;;4985511;28;20435;-88
2023/12/11 04:09:34;;;;;;;0.40;0.30;;;;;;;;;;4991515;28;21375;-88
2023/12/11 04:12:00;;;;;;;1.03;0.40;;;;;;;;;;4989702;28;20176;-88
2023/12/11 04:14:26;;;;;;;0.50;0.30;;;;;;;;;;4975968;28;20443;-89
2023/12/11 04:16:52;;;;;;;0.40;0.30;;;;;;;;;;4988621;28;20429;-88
2023/12/11 04:19:18;;;;;;;0.43;0.30;;;;;;;;;;4986244;28;20218;-89
2023/12/11 04:21:44;;;;;;;0.60;0.30;;;;;;;;;;4986931;28;20501;-89
2023/12/11 04:24:10;;;;;;;0.50;0.40;;;;;;;;;;4971978;28;20234;-88
2023/12/11 04:26:36;;;;;;;1.03;0.77;;;;;;;;;;4997346;28;20437;-89
2023/12/11 04:29:02;;;;;;;0.40;0.40;;;10.50;99.90;;;;;;4993671;28;20782;-89
2023/12/11 04:31:28;;;;;;;0.40;0.30;;;;;;;;;;4980962;28;20466;-89
2023/12/11 04:33:54;;;;;;;0.40;0.30;;;10.60;99.90;;;;;;4992636;28;20450;-89
2023/12/11 04:36:20;;;;;;;0.30;0.20;;;;;;;;;;4993240;28;20450;-90
2023/12/11 04:38:46;;;;;;;0.50;0.30;;;;;;;;;;4993859;28;20195;-89
2023/12/11 04:41:12;;;;;;;0.30;0.20;;;;;;;;;;4987871;28;20458;-89
2023/12/11 04:43:38;;;;;;;0.50;0.30;;;;;;;;;;4992008;28;20481;-90
2023/12/11 04:46:04;;;;;;;0.40;0.30;;;;;;;;;;4992963;28;20455;-89
2023/12/11 04:48:30;;;;;;;0.40;0.40;;;;;;;;;;4993185;28;20206;-89
2023/12/11 04:50:57;;;;;;;0.93;0.40;;;10.50;99.90;;;;;;5002180;28;20446;-90
2023/12/11 04:53:23;;;;;;;0.52;0.40;;;;;;;;;;4981386;28;20650;-90
2023/12/11 04:55:49;;;;;;;0.70;0.50;;;;;;;;;;5000290;28;20247;-88
2023/12/11 04:58:15;;;;;;;0.50;0.50;;;;;;;;;;4994575;28;20435;-88
2023/12/11 05:00:41;;;;;;;0.32;0.20;;;;;;;;;;4986764;28;20227;-88
2023/12/11 05:03:07;;;;;;;0.40;0.37;;;;;;;;;;4989871;28;20179;-89
2023/12/11 05:05:34;;;;;;;0.40;0.30;;;;;;;;;;4987907;28;21457;-89
2023/12/11 05:08:00;;;;;;;0.40;0.30;;;;;;;;;;4987562;28;20453;-89
2023/12/11 05:10:26;;;;;;;0.80;0.50;;;;;;;;;;4989219;28;20207;-88
2023/12/11 05:12:52;;;;;;;0.40;0.30;;;;;;;;;;4988443;28;21011;-88
2023/12/11 05:15:18;;;;;;;0.70;0.30;;;;;;;;;;4989299;28;20438;-88
2023/12/11 05:17:45;;;;;;;0.80;0.80;;;;;;;;;;4990112;28;20427;-88
2023/12/11 05:20:12;;;;;;;2.75;0.80;;;10.50;99.90;;;;;;4989715;28;20211;-87
2023/12/11 05:22:38;;;;;;;0.40;0.30;;;;;;;;;;4969806;28;20187;-85
2023/12/11 05:25:04;;;;;;;0.30;0.30;;;;;;;;;;4987819;28;20241;-86
2023/12/11 05:27:30;;;;;;;0.40;0.30;;;;;;;;;;4985094;28;20459;-86
2023/12/11 05:29:56;;;;;;;1.27;0.50;;;;;;;;;;4990061;28;20191;-86
2023/12/11 05:32:22;;;;;;;0.40;0.30;;;;;;;;;;4978609;28;20449;-87
2023/12/11 05:34:48;;;;;;;0.40;0.30;;;;;;;;;;4988644;28;20179;-87
2023/12/11 05:37:14;;;;;;;0.40;0.30;;;;;;;;;;4987552;28;20427;-88
2023/12/11 05:39:40;;;;;;;4.90;0.57;;;;;;;;;;4993397;28;20442;-87
2023/12/11 05:42:06;;;;;;;2.63;0.50;;;;;;;;;;4989461;28;20419;-88
2023/12/11 05:44:32;;;;;;;0.50;0.30;;;;;;;;;;4986457;28;20489;-88
2023/12/11 05:46:58;;;;;;;0.50;0.50;;;;;;;;;;4997825;28;20430;-85
2023/12/11 05:49:24;;;;;;;0.40;0.30;;;;;;;;;;4991645;28;20798;-85
2023/12/11 05:51:50;;;;;;;0.70;0.30;;;;;;;;;;4994593;28;20789;-84
2023/12/11 05:54:16;;;;;;;0.80;0.30;;;;;;;;;;4992740;28;20495;-85
2023/12/11 05:56:42;;;;;;;0.60;0.40;;;;;;;;;;5002152;28;20442;-85
2023/12/11 05:59:08;;;;;;;0.40;0.30;;;;;;;;;;4996058;28;20418;-83
2023/12/11 06:01:34;;;;;;;0.40;0.38;;;10.70;99.90;;;;;;4995685;28;20469;-84
2023/12/11 06:04:00;;;;;;;1.00;0.40;;;;;;;;;;4997624;28;20196;-83
2023/12/11 06:06:27;;;;;;;0.47;0.30;;;;;;;;;;5001165;28;20536;-83
2023/12/11 06:08:53;;;;;;;0.77;0.40;;;;;;;;;;4998752;28;20183;-85
2023/12/11 06:11:19;;;;;;;2.50;0.67;;;;;;;;;;4991467;28;20487;-84
2023/12/11 06:13:45;;;;;;;2.30;0.40;;;;;;;;;;5000005;28;20972;-84
2023/12/11 06:16:11;;;;;;;1.90;0.30;;;;;;;;;;4996950;28;20422;-84
2023/12/11 06:18:38;;;;;;;0.30;0.20;;;10.70;99.90;;;;;;4993155;28;20430;-84
2023/12/11 06:21:04;;;;;;;0.55;0.40;;;;;;;;;;5000344;28;20454;-84
2023/12/11 06:23:30;;;;;;;1.05;0.60;;;;;;;;;;4988435;28;20212;-82
2023/12/11 06:25:56;;;;;;;3.70;0.50;;;;;;;;;;4983778;28;20235;-83
2023/12/11 06:28:22;;;;;;;0.40;0.30;;;;;;;;;;4996346;28;20701;-83
2023/12/11 06:30:48;;;;;;;0.60;0.40;;;;;;;;;;4991930;28;20454;-84
2023/12/11 06:33:15;;;;;;;1.50;0.30;;;;;;;;;;4994537;28;20554;-84
2023/12/11 06:35:40;;;;;;;0.40;0.30;;;;;;;;;;4998736;28;21002;-85
2023/12/11 06:38:06;;;;;;;0.40;0.30;;;;;;;;;;4999083;28;20166;-82
2023/12/11 06:40:32;;;;;;;0.67;0.30;;;;;;;;;;4999005;28;20429;-84
2023/12/11 06:42:58;;;;;;;0.40;0.37;;;;;;;;;;5001306;28;20969;-84
2023/12/11 06:45:24;;;;;;;2.30;0.30;;;;;;;;;;4996977;28;20536;-84
2023/12/11 06:47:50;;;;;;;0.77;0.50;;;;;;;;;;5003167;28;20440;-83
2023/12/11 06:50:19;;;;;;;0.40;0.30;;;;;;;;;;4990547;28;21048;-84
2023/12/11 06:52:45;;;;;;;0.70;0.40;;;;;;;;;;4990880;28;20426;-83
2023/12/11 06:55:11;;;;;;;0.60;0.60;;;;;;;;;;4999834;28;20216;-83
2023/12/11 06:57:37;;;;;;;0.40;0.30;;;;;;;;;;4995290;28;20426;-84
2023/12/11 07:00:05;;;;;;;0.40;0.30;;;10.90;99.90;;;;;;4995503;28;20465;-83
2023/12/11 07:02:31;;;;;;;0.40;0.30;;;;;;;;;;4994293;28;20259;-83
2023/12/11 07:04:57;;;;;;;0.40;0.30;;;;;;;;;;4992728;28;20234;-84
2023/12/11 07:07:23;;;;;;;0.40;0.30;;;;;;;;;;5002303;28;20184;-84
2023/12/11 07:09:49;;;;;;;2.40;0.80;;;;;;;;;;4993699;28;20450;-83
2023/12/11 07:12:15;;;;;;;0.60;0.43;;;;;;;;;;4992542;28;20499;-84
2023/12/11 07:14:41;;;;;;;0.40;0.40;;;;;;;;;;4995336;28;20213;-82
2023/12/11 07:17:07;;;;;;;0.50;0.30;;;;;;;;;;4988554;28;20469;-83
2023/12/11 07:19:32;;;;;;;0.40;0.40;;;;;;;;;;4989757;28;20238;-83
2023/12/11 07:21:59;;;;;;;0.40;0.33;;;;;;;;;;4993921;28;20453;-82
2023/12/11 07:24:25;;;;;;;0.40;0.30;;;;;;;;;;4977655;28;20466;-85
2023/12/11 07:26:51;;;;;;;0.50;0.40;;;;;;;;;;4988808;28;20194;-84
2023/12/11 07:29:17;;;;;;;0.40;0.30;;;;;;;;;;4995280;28;20727;-84
2023/12/11 07:31:44;;;;;;;0.40;0.40;;;;;;;;;;4997963;28;20206;-84
2023/12/11 07:34:10;;;;;;;1.58;0.50;;;;;;;;;;4977136;28;20450;-83
2023/12/11 07:36:36;;;;;;;0.40;0.30;;;;;;;;;;4991845;28;20187;-84
2023/12/11 07:39:02;;;;;;;0.50;0.40;;;;;;;;;;4992924;28;20285;-83
2023/12/11 07:41:28;;;;;;;0.90;0.50;;;;;;;;;;4999320;28;20448;-84
2023/12/11 07:43:54;;;;;;;0.40;0.33;;;;;;;;;;4990020;28;20262;-83
2023/12/11 07:46:20;;;;;;;0.90;0.60;;;;;;;;;;4993080;28;20434;-82
2023/12/11 07:48:46;;;;;;;0.40;0.20;;;;;;;;;;4992318;28;20455;-83
2023/12/11 07:51:20;;;;;;;0.40;0.30;;;10.90;99.90;;;;;;4995367;28;20770;-82
2023/12/11 07:53:46;;;;;;;0.50;0.40;;;;;;;;;;4978950;28;20718;-83
2023/12/11 07:56:22;;;;;;;0.63;0.63;;;10.70;99.90;;;;;;4986700;28;20180;-85
2023/12/11 07:58:52;;;;;;;0.30;0.20;;;10.90;99.90;;;;;;4991281;28;20203;-85
2023/12/11 08:01:18;;;;;;;0.90;0.30;;;;;;;;;;4995411;28;20303;-85
2023/12/11 08:03:44;;;;;;;0.73;0.40;;;;;;;;;;4993549;28;20234;-83
2023/12/11 08:06:10;;;;;;;0.40;0.40;;;;;;;;;;4993503;28;20187;-85
2023/12/11 08:08:40;;;;;;;5.90;0.63;;;11.00;99.90;;;;;;4997482;28;20843;-83
2023/12/11 08:11:15;;;;;;;0.93;0.47;;;11.20;99.90;;;;;;4979267;28;20853;-84
2023/12/11 08:13:41;;;;;;;0.55;0.40;;;;;;;;;;4993428;28;20214;-83
2023/12/11 08:16:07;;;;;;;0.73;0.40;;;;;;;;;;4991936;28;20187;-86
2023/12/11 08:18:33;;;;;;;0.40;0.30;;;;;;;;;;4991119;28;20432;-83
2023/12/11 08:20:59;;;;;;;0.30;0.20;;;;;;;;;;4994813;28;20450;-84
2023/12/11 08:23:25;;;;;;;0.60;0.40;;;;;;;;;;4991322;28;20423;-85
2023/12/11 08:25:51;;;;;;;2.00;0.70;;;;;;;;;;4997036;28;20688;-82
2023/12/11 08:28:17;;;;;;;0.50;0.30;;;;;;;;;;4972633;28;20622;-85
2023/12/11 08:30:43;;;;;;;0.70;0.67;;;;;;;;;;4993065;28;20475;-82
2023/12/11 08:33:10;;;;;;;0.60;0.57;;;;;;;;;;4995428;28;20797;-83
2023/12/11 08:35:36;;;;;;;4.40;0.60;;;;;;;;;;4993020;28;20412;-84
2023/12/11 08:38:02;;;;;;;0.50;0.50;;;;;;;;;;4998479;28;20191;-84
2023/12/11 08:40:28;;;;;;;0.40;0.30;;;;;;;;;;4997935;28;21062;-85
2023/12/11 08:42:54;;;;;;;0.68;0.57;;;;;;;;;;4997362;28;20190;-85
2023/12/11 08:45:20;;;;;;;0.57;0.40;;;;;;;;;;4994180;28;20204;-84
2023/12/11 08:47:46;;;;;;;2.47;1.03;;;;;;;;;;4998446;28;20494;-85
2023/12/11 08:50:12;;;;;;;0.90;0.50;;;;;;;;;;4996128;28;20435;-85
2023/12/11 08:52:38;;;;;;;6.60;0.80;;;;;;;;;;4984977;28;20439;-83
2023/12/11 08:55:05;;;;;;;3.87;1.20;;;14.00;99.90;;;;;;4979528;28;20426;-84
2023/12/11 08:57:31;;;;;;;1.23;0.50;;;;;;;;;;4982611;28;20850;-83
2023/12/11 08:59:57;;;;;;;0.80;0.63;;;13.60;99.90;;;;;;4971863;28;20459;-84
2023/12/11 09:02:23;;;;;;;0.40;0.40;;;;;;;;;;4994246;28;20437;-83
2023/12/11 09:04:49;;;;;;;2.10;0.33;;;;;;;;;;4991149;28;20453;-82
2023/12/11 09:07:15;;;;;;;2.60;0.63;;;;;;;;;;4993816;28;20414;-82
2023/12/11 09:09:41;;;;;;;1.37;0.80;;;;;;;;;;4992735;28;21153;-83
2023/12/11 09:12:07;;;;;;;1.47;0.30;;;12.90;99.90;;;;;;5004053;28;20428;-83
2023/12/11 09:14:33;;;;;;;1.37;0.70;;;;;;;;;;4995637;28;20415;-83
2023/12/11 09:16:59;;;;;;;0.83;0.50;;;;;;;;;;4993880;28;20202;-82
2023/12/11 09:19:25;;;;;;;0.73;0.60;;;;;;;;;;4989518;28;20430;-83
2023/12/11 09:21:51;;;;;;;1.23;1.00;;;12.20;99.90;;;;;;4992156;28;20430;-84
2023/12/11 09:24:17;;;;;;;4.00;0.57;;;;;;;;;;4990677;28;20473;-82
2023/12/11 09:26:43;;;;;;;0.40;0.20;;;;;;;;;;4991636;28;20261;-82
2023/12/11 09:29:10;;;;;;;0.70;0.70;;;;;;;;;;4988972;28;20419;-84
2023/12/11 09:31:36;;;;;;;3.17;0.47;;;;;;;;;;4990338;28;20178;-82
2023/12/11 09:34:02;;;;;;;0.50;0.40;;;;;;;;;;4983032;28;20192;-82
2023/12/11 09:36:28;;;;;;;0.60;0.40;;;;;;;;;;4984930;28;20434;-83
2023/12/11 09:38:55;;;;;;;0.40;0.30;;;;;;;;;;4992667;28;20194;-82
2023/12/11 09:41:21;;;;;;;0.40;0.30;;;12.00;99.90;;;;;;4974840;28;20439;-81
2023/12/11 09:43:48;;;;;;;0.50;0.30;;;12.20;99.90;;;;;;4989546;28;20456;-84
2023/12/11 09:46:18;;;;;;;1.43;0.50;;;12.00;99.90;;;;;;4999392;28;20435;-83
2023/12/11 09:48:44;;;;;;;0.82;0.70;;;;;;;;;;4992121;28;20415;-82
2023/12/11 09:51:10;;;;;;;0.77;0.40;;;;;;;;;;4988569;28;20222;-84
2023/12/11 09:53:37;;;;;;;0.40;0.30;;;11.90;99.90;;;;;;4998546;28;20490;-83
2023/12/11 09:56:04;;;;;;;0.77;0.40;;;11.90;99.90;;;;;;4970712;28;20566;-83
2023/12/11 09:58:30;;;;;;;0.85;0.80;;;;;;;;;;4987049;28;20487;-85
2023/12/11 10:01:00;;;;;;;0.90;0.63;;;12.00;99.90;;;;;;4988202;28;20284;-83
2023/12/11 10:03:27;;;;;;;0.50;0.30;;;12.10;99.90;;;;;;4987152;28;20432;-84
2023/12/11 10:05:59;;;;;;;0.40;0.20;;;12.20;99.90;;;;;;4977537;28;20212;-83
2023/12/11 10:08:25;;;;;;;4.63;0.60;;;12.40;99.90;;;;;;4975259;28;20218;-83
2023/12/11 10:11:07;;;;;;;3.23;0.70;;;12.40;99.90;;;;;;4977506;28;20446;-83
2023/12/11 10:13:33;;;;;;;3.13;0.50;;;;;;;;;;4988547;28;20511;-83
2023/12/11 10:15:59;;;;;;;0.80;0.30;;;;;;;;;;4968544;28;20952;-83
2023/12/11 10:18:25;;;;;;;1.03;0.77;;;;;;;;;;4982066;28;20480;-83
2023/12/11 10:20:57;;;;;;;0.63;0.50;;;12.20;99.90;;;;;;4995338;28;20481;-83
2023/12/11 10:23:23;;;;;;;0.60;0.43;;;;;;;;;;4992021;28;20476;-84
2023/12/11 10:25:51;;;;;;;0.63;0.40;;;12.00;99.90;;;;;;4991467;28;20187;-84
2023/12/11 10:28:19;;;;;;;3.03;0.40;;;11.80;99.90;;;;;;4979816;28;20205;-84
2023/12/11 10:30:55;;;;;;;0.60;0.45;;;11.90;99.90;;;;;;5017509;28;20199;-83
2023/12/11 10:33:23;;;;;;;7.40;0.95;;;11.80;99.90;;;;;;4988583;28;20194;-83
2023/12/11 10:35:50;;;;;;;3.70;0.43;;;;;;;;;;4974124;28;20661;-82
2023/12/11 10:38:26;;;;;;;1.02;0.57;;;11.90;99.90;;;;;;4984262;28;20261;-83
2023/12/11 10:40:52;;;;;;;2.38;0.47;;;11.70;99.90;;;;;;4983083;28;20214;-83
2023/12/11 10:43:18;;;;;;;0.80;0.57;;;;;;;;;;4992717;28;20240;-83
2023/12/11 10:45:45;;;;;;;3.15;0.50;;;;;;;;;;4993135;28;20175;-84
2023/12/11 10:48:11;;;;;;;1.17;0.50;;;12.10;99.90;;;;;;4993982;28;20194;-83
2023/12/11 10:50:37;;;;;;;7.07;0.73;;;11.90;99.90;;;;;;4991336;28;21265;-84
2023/12/11 10:53:03;;;;;;;1.27;0.67;;;;;;;;;;4992650;28;20186;-84
2023/12/11 10:55:33;;;;;;;0.70;0.70;;;12.10;99.90;;;;;;4991919;28;20418;-86
2023/12/11 10:58:01;;;;;;;0.63;0.40;;;12.10;99.90;;;;;;4979786;28;20236;-83
2023/12/11 11:00:30;;;;;;;0.40;0.30;;;12.10;99.90;;;;;;4991642;28;20219;-85
2023/12/11 11:02:56;;;;;;;0.88;0.57;;;12.10;99.90;;;;;;4978551;28;20272;-84
2023/12/11 11:05:24;;;;;;;1.05;0.40;;;12.00;99.90;;;;;;4979062;28;20682;-85
2023/12/11 11:07:50;;;;;;;0.98;0.65;;;;;;;;;;5000704;28;20187;-83
2023/12/11 11:10:23;;;;;;;1.98;0.38;;;12.00;99.90;;;;;;4984809;28;20203;-83
2023/12/11 11:13:05;;;;;;;0.73;0.35;;;11.90;99.90;;;;;;4989653;28;20669;-85
2023/12/11 11:15:31;;;;;;;0.93;0.60;;;;;;;;;;4986743;28;20187;-82
2023/12/11 11:18:02;;;;;;;3.33;0.90;;;12.10;99.90;;;;;;4991360;28;20752;-85
2023/12/11 11:20:35;;;;;;;0.60;0.45;;;11.70;99.90;;;;;;4988914;28;20438;-83
2023/12/11 11:23:16;;;;;;;0.40;0.30;;;11.90;99.90;;;;;;4975759;28;20183;-84
2023/12/11 11:25:51;;;;;;;5.22;0.70;;;11.90;99.90;;;;;;4987734;28;20232;-85
2023/12/11 11:28:50;;;;;;;1.73;0.63;;;12.00;99.90;;;;;;4989767;28;20173;-84
2023/12/11 11:31:16;;;;;;;0.80;0.47;;;;;;;;;;4998005;28;21391;-84
2023/12/11 11:33:50;;;;;;;2.63;0.83;;;12.30;99.90;;;;;;4996540;28;20179;-84
2023/12/11 11:36:17;;;;;;;0.67;0.40;;;12.40;99.90;;;;;;4991440;28;20441;-84
2023/12/11 11:38:54;;;;;;;5.00;1.17;;;12.40;99.90;;;;;;4993438;28;20461;-84
2023/12/11 11:41:27;;;;;;;2.20;1.42;;;12.60;99.90;;;;;;4977517;28;20710;-84
2023/12/11 11:43:56;;;;;;;0.40;0.40;;;12.80;99.90;;;;;;4980612;28;20199;-83
2023/12/11 11:46:23;;;;;;;0.60;0.30;;;;;;;;;;4988993;28;20197;-82
2023/12/11 11:48:49;;;;;;;0.53;0.53;;;;;;;;;;4989114;28;20492;-83
2023/12/11 11:51:17;;;;;;;2.90;0.40;;;13.00;99.90;;;;;;4992845;28;20450;-84
2023/12/11 11:53:44;;;;;;;2.60;0.50;;;12.90;99.90;;;;;;5001683;28;20450;-83
2023/12/11 11:56:11;;;;;;;1.23;0.50;;;;;;;;;;4993908;28;20464;-82
2023/12/11 11:58:37;;;;;;;0.50;0.43;;;;;;;;;;4995015;28;20445;-84
2023/12/11 12:01:06;;;;;;;1.77;0.70;;;12.70;99.90;;;;;;4996586;28;21333;-84
2023/12/11 12:03:42;;;;;;;13.23;1.07;;;13.10;99.90;;;;;;4997944;28;20430;-84
2023/12/11 12:06:08;;;;;;;1.23;0.50;;;13.00;99.90;;;;;;5009629;28;20434;-85
2023/12/11 12:08:36;;;;;;;6.53;0.60;;;13.10;99.90;;;;;;4974410;28;20471;-83
2023/12/11 12:11:02;;;;;;;3.10;1.00;;;;;;;;;;4977252;28;20469;-84
2023/12/11 12:13:33;;;;;;;5.40;0.87;;;13.10;99.90;;;;;;4989822;28;20438;-84
2023/12/11 12:15:58;;;;;;;0.80;0.60;;;;;;;;;;4990558;28;20481;-83
2023/12/11 12:18:24;;;;;;;1.73;0.53;;;;;;;;;;4990859;28;20821;-84
2023/12/11 12:21:06;;;;;;;9.83;0.57;;;13.20;99.90;;;;;;4988852;28;20451;-83
2023/12/11 12:23:32;;;;;;;2.90;0.67;;;;;;;;;;4991103;28;20423;-83
2023/12/11 12:26:01;;;;;;;0.90;0.50;;;13.00;99.90;;;;;;5013172;28;20427;-83
2023/12/11 12:28:27;;;;;;;2.10;0.70;;;;;;;;;;4981006;28;20437;-83
2023/12/11 12:30:53;;;;;;;3.13;0.43;;;;;;;;;;4989085;28;20455;-82
2023/12/11 12:33:19;;;;;;;0.90;0.50;;;12.60;99.90;;;;;;5000672;28;20422;-83
2023/12/11 12:35:45;;;;;;;12.67;1.40;;;12.60;99.90;;;;;;4977327;28;20184;-84
2023/12/11 12:38:11;;;;;;;0.70;0.50;;;12.70;99.90;;;;;;4994975;28;20437;-82
2023/12/11 12:40:38;;;;;;;7.27;1.07;;;;;;;;;;4998058;28;20505;-81
2023/12/11 12:43:13;;;;;;;4.40;1.07;;;12.50;99.90;;;;;;4990073;28;20435;-84
2023/12/11 12:45:39;;;;;;;1.75;0.73;;;12.50;99.90;;;;;;4994953;28;20479;-82
2023/12/11 12:48:08;;;;;;;2.10;0.93;;;;;;;;;;4967415;28;20291;-82
2023/12/11 12:50:34;;;;;;;8.03;1.50;;;12.40;99.90;;;;;;4991784;28;20485;-83
2023/12/11 12:53:09;;;;;;;1.03;0.67;;;12.40;99.90;;;;;;4976538;28;20422;-82
2023/12/11 12:55:36;;;;;;;0.60;0.57;;;;;;;;;;5014160;28;20427;-83
2023/12/11 12:58:02;;;;;;;3.85;0.95;;;;;;;;;;4994263;28;20515;-81
2023/12/11 13:00:29;;;;;;;2.97;0.80;;;;;;;;;;4990162;28;20215;-82
2023/12/11 13:02:54;;;;;;;2.40;0.40;;;;;;;;;;4992818;28;20423;-83
2023/12/11 13:05:20;;;;;;;0.80;0.30;;;;;;;;;;4992777;28;21283;-83
2023/12/11 13:08:02;;;;;;;2.30;0.43;;;12.10;99.90;;;;;;4999635;28;20434;-83
2023/12/11 13:10:27;;;;;;;1.75;0.63;;;12.10;99.90;;;;;;4977991;28;20215;-83
2023/12/11 13:12:53;;;;;;;0.80;0.53;;;12.00;99.90;;;;;;4971628;28;20186;-84
2023/12/11 13:15:18;;;;;;;0.73;0.63;;;11.90;99.90;;;;;;4974612;28;20179;-83
2023/12/11 13:17:51;;;;;;;3.10;1.17;;;11.80;99.90;;;;;;4992248;28;20435;-83
2023/12/11 13:20:19;;;;;;;10.10;1.95;;;;;;;;;;4991505;28;20214;-81
2023/12/11 13:22:45;;;;;;;3.63;0.50;;;;;;;;;;4995020;28;20187;-82
2023/12/11 13:25:11;;;;;;;3.50;0.63;;;;;;;;;;4989990;28;20267;-83
2023/12/11 13:27:37;;;;;;;0.60;0.40;;;11.70;99.90;;;;;;4993471;28;20441;-84
2023/12/11 13:30:04;;;;;;;1.07;0.60;;;11.60;99.90;;;;;;4996148;28;20215;-84
2023/12/11 13:32:30;;;;;;;2.47;0.57;;;;;;;;;;4978008;28;20183;-82
2023/12/11 13:34:56;;;;;;;7.27;1.10;;;;;;;;;;4992073;28;20222;-82
2023/12/11 13:37:22;;;;;;;3.85;0.50;;;;;;;;;;4992580;28;20510;-82
2023/12/11 13:39:48;;;;;;;2.00;1.17;;;;;;;;;;4994141;28;20257;-82
2023/12/11 13:42:14;;;;;;;9.07;1.73;;;;;;;;;;4992076;28;20495;-82
2023/12/11 13:44:39;;;;;;;3.50;1.27;;;11.60;99.90;;;;;;4987325;28;20470;-83
2023/12/11 13:47:05;;;;;;;2.20;0.40;;;;;;;;;;4992970;28;20190;-84
2023/12/11 13:49:32;;;;;;;7.50;1.20;;;;;;;;;;5000737;28;20224;-84
2023/12/11 13:51:58;;;;;;;18.73;1.38;;;;;;;;;;4988921;28;20184;-83
2023/12/11 13:54:24;;;;;;;6.37;1.23;;;11.50;99.90;;;;;;4977069;28;20180;-84
2023/12/11 13:56:49;;;;;;;1.07;0.50;;;11.60;99.90;;;;;;4988221;28;20453;-82
2023/12/11 13:59:15;;;;;;;8.60;0.50;;;;;;;;;;4984066;28;20226;-84
2023/12/11 14:01:41;;;;;;;3.43;0.70;;;11.60;99.90;;;;;;4994950;28;20319;-83